Time;durP1;ratioP1;P1;durP2;ratioP2;P2;SDS_P1;SDS_P2;PMS_P1;PMS_P2;Temp;Humidity;BMP_temperature;BMP_pressure;BME280_temperature;BME280_humidity;BME280_pressure;Samples;Min_cycle;Max_cycle;Signal;HPM_P1;HPM_P2
2023/05/01 00:00:52;;;;;;;;;;;;;;;12.43;68.73;100204.22;4457733;32;33548;-81
2023/05/01 00:03:19;;;;;;;;;;;;;;;12.25;69.55;100210.41;4463390;32;33490;-81
2023/05/01 00:05:47;;;;;;;;;;;;;;;12.38;69.00;100202.34;4463364;32;33941;-81
2023/05/01 00:08:14;;;;;;;;;;;;;;;12.46;68.95;100201.75;4453995;32;34695;-80
2023/05/01 00:10:42;;;;;;;;;;;;;;;12.57;67.71;100203.09;4463340;32;34744;-81
2023/05/01 00:13:09;;;;;;;;;;;;;;;12.36;68.75;100209.16;4461609;32;33340;-81
2023/05/01 00:15:39;;;;;;;;;;;;;;;12.48;68.43;100197.53;4461071;32;33740;-81
2023/05/01 00:18:07;;;;;;;;;;;;;;;12.88;67.02;100200.09;4462167;32;33268;-81
2023/05/01 00:20:34;;;;;;;;;;;;;;;12.24;68.59;100198.22;4460529;32;34210;-81
2023/05/01 00:23:01;;;;;;;;;;;;;;;12.00;69.71;100204.09;4461567;32;34175;-81
2023/05/01 00:25:30;;;;;;;;;;;;;;;12.04;69.81;100206.84;4462975;32;34794;-81
2023/05/01 00:27:58;;;;;;;;;;;;;;;12.31;68.66;100189.87;4463016;32;33992;-80
2023/05/01 00:30:26;;;;;;;;;;;;;;;11.96;69.88;100202.19;4460742;32;34253;-80
2023/05/01 00:32:54;;;;;;;;;;;;;;;11.40;72.35;100205.59;4460157;32;33670;-80
2023/05/01 00:35:22;;;;;;;;;;;;;;;11.26;73.53;100198.81;4455791;32;34609;-80
2023/05/01 00:37:49;;;;;;;;;;;;;;;11.74;71.68;100200.28;4463247;32;34096;-81
2023/05/01 00:40:17;;;;;;;;;;;;;;;11.92;70.44;100195.06;4461085;32;34116;-80
2023/05/01 00:42:45;;;;;;;;;;;;;;;11.84;70.29;100199.00;4460262;32;34031;-80
2023/05/01 00:45:13;;;;;;;;;;;;;;;11.51;71.47;100196.63;4462963;32;34004;-81
2023/05/01 00:47:40;;;;;;;;;;;;;;;11.41;72.27;100196.97;4458202;32;33832;-80
2023/05/01 00:50:08;;;;;;;;;;;;;;;11.81;71.23;100198.84;4466973;32;33849;-81
2023/05/01 00:52:36;;;;;;;;;;;;;;;11.79;70.23;100203.09;4457311;32;33896;-81
2023/05/01 00:55:04;;;;;;;;;;;;;;;11.83;69.37;100206.72;4465946;32;34797;-80
2023/05/01 00:57:32;;;;;;;;;;;;;;;11.86;68.92;100206.84;4459193;32;34925;-80
2023/05/01 00:59:59;;;;;;;;;;;;;;;12.21;67.51;100203.28;4466881;32;34170;-81
2023/05/01 01:02:27;;;;;;;;;;;;;;;11.44;70.89;100210.09;4457111;32;32982;-80
2023/05/01 01:04:54;;;;;;;;;;;;;;;10.68;74.11;100210.72;4465456;32;34189;-80
2023/05/01 01:07:23;;;;;;;;;;;;;;;10.47;75.28;100207.00;4450441;32;34268;-80
2023/05/01 01:09:51;;;;;;;;;;;;;;;11.66;70.76;100204.22;4448693;32;33925;-80
2023/05/01 01:12:30;;;;;;;;;;;;;;;11.89;68.46;100209.59;4467031;32;34134;-80
2023/05/01 01:15:21;;;;;;;;;;;;;;;11.33;70.76;100208.69;4453461;32;34072;-80
2023/05/01 01:17:48;;;;;;;;;;;;;;;11.48;71.42;100208.53;4438377;32;34631;-80
2023/05/01 01:20:16;;;;;;;;;;;;;;;10.66;75.39;100204.53;4466091;32;33416;-80
2023/05/01 01:22:45;;;;;;;;;;;;;;;10.47;76.46;100202.72;4459088;32;33932;-80
2023/05/01 01:25:18;;;;;;;;;;;;;;;10.11;77.11;100202.53;4467575;32;35138;-80
2023/05/01 01:27:49;;;;;;;;;;;;;;;10.53;75.58;100196.97;4457150;32;34148;-80
2023/05/01 01:30:37;;;;;;;;;;;;;;;10.91;73.81;100195.41;4467050;32;34185;-80
2023/05/01 01:33:08;;;;;;;;;;;;;;;10.65;75.81;100194.13;4455682;32;33045;-81
2023/05/01 01:35:35;;;;;;;;;;;;;;;11.90;69.87;100190.59;4459350;32;34012;-81
2023/05/01 01:38:04;;;;;;;;;;;;;;;12.29;66.74;100191.53;4447049;32;35027;-81
2023/05/01 01:40:38;;;;;;;;;;;;;;;12.30;66.62;100182.91;4465209;32;33860;-81
2023/05/01 01:43:06;;;;;;;;;;;;;;;12.29;66.70;100185.44;4446967;32;33408;-80
2023/05/01 01:45:34;;;;;;;;;;;;;;;11.72;68.90;100185.44;4457758;32;33991;-80
2023/05/01 01:48:01;;;;;;;;;;;;;;;11.45;70.62;100190.22;4441681;32;33841;-81
2023/05/01 01:50:29;;;;;;;;;;;;;;;11.45;71.71;100193.69;4464618;32;34009;-81
2023/05/01 01:52:57;;;;;;;;;;;;;;;11.49;71.84;100193.06;4452835;32;33108;-80
2023/05/01 01:55:26;;;;;;;;;;;;;;;12.27;68.46;100179.31;4449594;32;34185;-80
2023/05/01 01:57:53;;;;;;;;;;;;;;;11.98;68.41;100190.16;4460547;32;34105;-80
2023/05/01 02:00:21;;;;;;;;;;;;;;;11.76;69.36;100202.94;4452083;32;33550;-80
2023/05/01 02:02:48;;;;;;;;;;;;;;;11.47;70.73;100199.84;4462723;32;33229;-80
2023/05/01 02:05:16;;;;;;;;;;;;;;;11.39;72.35;100196.00;4455667;32;33565;-80
2023/05/01 02:07:45;;;;;;;;;;;;;;;12.28;67.97;100194.94;4459467;32;34959;-80
2023/05/01 02:10:12;;;;;;;;;;;;;;;12.14;67.86;100196.03;4457682;32;34696;-80
2023/05/01 02:12:40;;;;;;;;;;;;;;;11.96;68.50;100191.78;4454308;32;34082;-81
2023/05/01 02:15:07;;;;;;;;;;;;;;;12.30;67.72;100180.28;4455178;32;33969;-80
2023/05/01 02:17:37;;;;;;;;;;;;;;;12.22;67.49;100192.06;4442517;32;33814;-81
2023/05/01 02:20:05;;;;;;;;;;;;;;;12.74;66.02;100186.53;4462187;32;34013;-80
2023/05/01 02:22:32;;;;;;;;;;;;;;;12.46;66.73;100188.75;4461872;32;33491;-80
2023/05/01 02:25:00;;;;;;;;;;;;;;;12.23;67.56;100180.88;4455741;32;34211;-81
2023/05/01 02:27:31;;;;;;;;;;;;;;;11.04;72.90;100192.59;4458162;32;34185;-80
2023/05/01 02:29:58;;;;;;;;;;;;;;;10.85;75.28;100190.81;4456923;32;34051;-80
2023/05/01 02:32:27;;;;;;;;;;;;;;;11.36;73.82;100191.56;4462134;32;32191;-80
2023/05/01 02:34:54;;;;;;;;;;;;;;;12.43;68.86;100188.66;4463722;32;34892;-80
2023/05/01 02:37:22;;;;;;;;;;;;;;;12.73;67.70;100184.75;4462212;32;34261;-80
2023/05/01 02:39:49;;;;;;;;;;;;;;;12.48;68.53;100187.16;4460761;32;33887;-81
2023/05/01 02:42:16;;;;;;;;;;;;;;;12.56;68.25;100190.97;4461469;32;32912;-81
2023/05/01 02:44:46;;;;;;;;;;;;;;;12.06;69.41;100187.91;4456723;32;33890;-80
2023/05/01 02:47:14;;;;;;;;;;;;;;;12.47;67.17;100190.56;4458465;32;34152;-80
2023/05/01 02:49:42;;;;;;;;;;;;;;;11.97;67.62;100193.56;4459326;32;34974;-81
2023/05/01 02:52:10;;;;;;;;;;;;;;;11.75;67.81;100198.56;4460883;32;33074;-80
2023/05/01 02:54:38;;;;;;;;;;;;;;;10.91;72.00;100191.09;4461367;32;34652;-80
2023/05/01 02:57:05;;;;;;;;;;;;;;;11.54;71.28;100196.75;4461903;32;33844;-80
2023/05/01 02:59:32;;;;;;;;;;;;;;;11.61;71.68;100196.22;4460834;32;34836;-80
2023/05/01 03:02:00;;;;;;;;;;;;;;;11.27;72.13;100195.44;4460245;32;33856;-80
2023/05/01 03:04:28;;;;;;;;;;;;;;;12.07;69.20;100199.16;4456687;32;33853;-80
2023/05/01 03:06:55;;;;;;;;;;;;;;;12.41;67.37;100200.69;4457174;32;33706;-80
2023/05/01 03:09:23;;;;;;;;;;;;;;;12.61;66.95;100199.81;4458235;32;34162;-80
2023/05/01 03:11:50;;;;;;;;;;;;;;;12.85;66.60;100199.09;4458685;32;34101;-80
2023/05/01 03:14:17;;;;;;;;;;;;;;;12.95;66.12;100204.72;4454073;32;34462;-80
2023/05/01 03:16:45;;;;;;;;;;;;;;;12.58;67.09;100204.91;4462209;32;35026;-80
2023/05/01 03:19:12;;;;;;;;;;;;;;;12.12;69.68;100210.66;4464234;32;34544;-81
2023/05/01 03:21:39;;;;;;;;;;;;;;;12.26;69.02;100208.69;4459978;32;33076;-80
2023/05/01 03:24:07;;;;;;;;;;;;;;;12.47;68.57;100206.13;4461286;32;33714;-80
2023/05/01 03:26:34;;;;;;;;;;;;;;;12.71;67.78;100207.22;4463020;32;35085;-80
2023/05/01 03:29:01;;;;;;;;;;;;;;;12.56;68.10;100207.44;4462681;32;33311;-80
2023/05/01 03:31:30;;;;;;;;;;;;;;;13.00;66.93;100207.53;4460714;32;33390;-81
2023/05/01 03:33:57;;;;;;;;;;;;;;;13.20;65.29;100204.88;4460846;32;34110;-80
2023/05/01 03:36:26;;;;;;;;;;;;;;;12.77;65.67;100207.47;4465123;32;33941;-80
2023/05/01 03:38:54;;;;;;;;;;;;;;;12.51;66.07;100215.84;4465064;32;34866;-80
2023/05/01 03:41:22;;;;;;;;;;;;;;;13.11;63.50;100207.97;4450211;32;33581;-80
2023/05/01 03:43:51;;;;;;;;;;;;;;;13.01;63.52;100205.81;4452783;32;34327;-80
2023/05/01 03:46:20;;;;;;;;;;;;;;;13.00;63.12;100210.16;4464939;32;34948;-80
2023/05/01 03:48:47;;;;;;;;;;;;;;;12.98;63.19;100211.78;4465394;32;34730;-80
2023/05/01 03:51:16;;;;;;;;;;;;;;;13.06;63.18;100210.41;4464730;32;33101;-80
2023/05/01 03:53:43;;;;;;;;;;;;;;;13.62;61.08;100205.72;4461024;32;34246;-81
2023/05/01 03:56:11;;;;;;;;;;;;;;;13.07;63.03;100199.16;4462833;32;33839;-80
2023/05/01 03:58:38;;;;;;;;;;;;;;;12.88;64.29;100200.09;4459523;32;33956;-81
2023/05/01 04:01:05;;;;;;;;;;;;;;;13.23;63.59;100213.69;4458930;32;34470;-81
2023/05/01 04:03:33;;;;;;;;;;;;;;;12.94;64.70;100205.56;4461292;32;33956;-81
2023/05/01 04:06:01;;;;;;;;;;;;;;;12.81;65.45;100208.47;4460583;32;33499;-80
2023/05/01 04:08:28;;;;;;;;;;;;;;;12.84;65.69;100210.31;4465111;32;33946;-80
2023/05/01 04:10:56;;;;;;;;;;;;;;;12.97;65.29;100204.81;4458932;32;32632;-81
2023/05/01 04:13:23;;;;;;;;;;;;;;;13.08;65.50;100206.13;4453688;32;33002;-81
2023/05/01 04:15:50;;;;;;;;;;;;;;;13.35;64.64;100205.53;4458029;32;33660;-81
2023/05/01 04:18:18;;;;;;;;;;;;;;;13.33;63.93;100202.84;4458925;32;33927;-81
2023/05/01 04:20:45;;;;;;;;;;;;;;;13.41;63.42;100207.47;4453734;32;33382;-80
2023/05/01 04:23:12;;;;;;;;;;;;;;;13.31;62.17;100207.09;4458078;32;34794;-80
2023/05/01 04:25:40;;;;;;;;;;;;;;;13.07;62.11;100208.66;4459233;32;34912;-80
2023/05/01 04:28:11;;;;;;;;;;;;;;;13.15;61.80;100207.25;4463104;32;34773;-81
2023/05/01 04:30:38;;;;;;;;;;;;;;;13.25;61.36;100213.72;4464815;32;33667;-80
2023/05/01 04:33:10;;;;;;;;;;;;;;;13.71;60.39;100219.09;4460087;32;33609;-80
2023/05/01 04:35:38;;;;;;;;;;;;;;;13.56;60.04;100213.28;4457494;32;34190;-80
2023/05/01 04:38:05;;;;;;;;;;;;;;;14.04;58.80;100217.69;4462762;32;34317;-81
2023/05/01 04:40:33;;;;;;;;;;;;;;;13.89;59.04;100212.81;4464572;32;34001;-80
2023/05/01 04:43:00;;;;;;;;;;;;;;;13.88;58.85;100219.72;4457605;32;35053;-80
2023/05/01 04:45:28;;;;;;;;;;;;;;;13.71;59.26;100220.78;4459642;32;33897;-81
2023/05/01 04:47:55;;;;;;;;;;;;;;;13.82;58.13;100222.09;4461635;32;34011;-81
2023/05/01 04:50:23;;;;;;;;;;;;;;;13.85;57.91;100222.22;4450956;32;33272;-80
2023/05/01 04:52:51;;;;;;;;;;;;;;;14.11;57.59;100224.91;4457066;32;34830;-81
2023/05/01 04:55:18;;;;;;;;;;;;;;;13.85;57.72;100222.22;4459690;32;35048;-80
2023/05/01 04:57:48;;;;;;;;;;;;;;;14.09;55.22;100223.97;4461666;32;33889;-81
2023/05/01 05:00:17;;;;;;;;;;;;;;;14.16;56.06;100224.25;4459469;32;34144;-81
2023/05/01 05:02:46;;;;;;;;;;;;;;;13.66;56.99;100224.97;4456962;32;33384;-81
2023/05/01 05:05:13;;;;;;;;;;;;;;;14.09;56.42;100231.78;4442050;32;34232;-80
2023/05/01 05:07:41;;;;;;;;;;;;;;;13.81;56.71;100225.53;4461601;32;33486;-81
2023/05/01 05:10:09;;;;;;;;;;;;;;;14.01;56.44;100228.03;4459598;32;33866;-80
2023/05/01 05:12:37;;;;;;;;;;;;;;;13.76;57.38;100224.47;4457201;32;34252;-81
2023/05/01 05:15:04;;;;;;;;;;;;;;;14.38;55.68;100224.16;4457784;32;34274;-81
2023/05/01 05:17:32;;;;;;;;;;;;;;;14.12;56.35;100231.91;4458449;32;34326;-81
2023/05/01 05:19:59;;;;;;;;;;;;;;;13.76;56.43;100227.06;4462380;32;33016;-80
2023/05/01 05:22:27;;;;;;;;;;;;;;;14.09;56.47;100231.78;4458415;32;34274;-81
2023/05/01 05:25:02;;;;;;;;;;;;;;;14.11;56.31;100232.75;4460204;32;34558;-80
2023/05/01 05:27:35;;;;;;;;;;;;;;;14.27;55.97;100226.38;4462357;32;34706;-81
2023/05/01 05:30:03;;;;;;;;;;;;;;;14.30;56.05;100226.50;4462536;32;33196;-82
2023/05/01 05:32:31;;;;;;;;;;;;;;;14.34;54.73;100228.38;4458392;32;34023;-81
2023/05/01 05:34:58;;;;;;;;;;;;;;;14.37;53.73;100233.72;4458630;32;34893;-81
2023/05/01 05:37:25;;;;;;;;;;;;;;;13.90;53.68;100236.28;4458812;32;32725;-80
2023/05/01 05:39:53;;;;;;;;;;;;;;;14.81;51.95;100234.41;4460543;32;34006;-81
2023/05/01 05:42:21;;;;;;;;;;;;;;;14.71;52.07;100230.59;4456975;32;33046;-81
2023/05/01 05:44:48;;;;;;;;;;;;;;;14.59;52.36;100240.59;4458220;32;34069;-81
2023/05/01 05:47:15;;;;;;;;;;;;;;;14.78;51.83;100236.03;4460819;32;33840;-81
2023/05/01 05:49:43;;;;;;;;;;;;;;;14.26;52.66;100241.13;4453595;32;31964;-81
2023/05/01 05:52:10;;;;;;;;;;;;;;;14.07;50.82;100247.34;4465349;32;33942;-80
2023/05/01 05:54:38;;;;;;;;;;;;;;;14.20;50.06;100251.31;4451724;32;34396;-81
2023/05/01 05:57:05;;;;;;;;;;;;;;;14.31;50.22;100244.78;4460242;32;34476;-81
2023/05/01 05:59:33;;;;;;;;;;;;;;;14.08;50.52;100245.62;4458460;32;33439;-81
2023/05/01 06:02:00;;;;;;;;;;;;;;;14.80;50.31;100239.59;4441983;32;34954;-81
2023/05/01 06:04:28;;;;;;;;;;;;;;;14.53;50.22;100245.56;4468198;32;34086;-82
2023/05/01 06:06:56;;;;;;;;;;;;;;;14.24;50.46;100252.34;4462590;32;33720;-82
2023/05/01 06:09:24;;;;;;;;;;;;;;;14.47;50.33;100245.34;4462409;32;33100;-81
2023/05/01 06:11:51;;;;;;;;;;;;;;;14.47;50.38;100258.38;4463898;32;34751;-81
2023/05/01 06:14:18;;;;;;;;;;;;;;;14.64;50.02;100249.50;4455802;32;33989;-81
2023/05/01 06:16:46;;;;;;;;;;;;;;;15.02;49.72;100252.50;4463363;32;33743;-80
2023/05/01 06:19:14;;;;;;;;;;;;;;;15.06;50.01;100249.16;4465124;32;33026;-81
2023/05/01 06:21:42;;;;;;;;;;;;;;;14.91;50.35;100253.87;4457382;32;34274;-81
2023/05/01 06:24:09;;;;;;;;;;;;;;;14.98;49.63;100250.63;4466168;32;34200;-82
2023/05/01 06:26:37;;;;;;;;;;;;;;;14.79;49.64;100253.44;4456717;32;32944;-81
2023/05/01 06:29:04;;;;;;;;;;;;;;;14.93;48.81;100262.62;4457153;32;33884;-81
2023/05/01 06:31:32;;;;;;;;;;;;;;;15.01;48.25;100255.97;4458495;32;34280;-81
2023/05/01 06:33:59;;;;;;;;;;;;;;;14.86;48.94;100261.53;4464798;32;34861;-80
2023/05/01 06:36:27;;;;;;;;;;;;;;;15.04;47.61;100261.28;4452818;32;34989;-82
2023/05/01 06:38:55;;;;;;;;;;;;;;;15.16;46.87;100265.13;4450176;32;32708;-81
2023/05/01 06:41:24;;;;;;;;;;;;;;;15.32;45.93;100264.84;4459460;32;34898;-81
2023/05/01 06:43:51;;;;;;;;;;;;;;;15.92;44.42;100267.63;4447103;32;34178;-80
2023/05/01 06:46:19;;;;;;;;;;;;;;;15.83;42.54;100264.75;4461124;32;34085;-81
2023/05/01 06:48:47;;;;;;;;;;;;;;;16.24;41.65;100259.84;4463168;32;33248;-81
2023/05/01 06:51:15;;;;;;;;;;;;;;;16.25;40.56;100256.41;4448943;32;33935;-81
2023/05/01 06:53:42;;;;;;;;;;;;;;;16.90;39.79;100258.22;4449229;32;34184;-81
2023/05/01 06:56:09;;;;;;;;;;;;;;;16.68;39.54;100257.63;4464330;32;33859;-81
2023/05/01 06:58:36;;;;;;;;;;;;;;;17.20;38.82;100247.66;4452266;32;33071;-81
2023/05/01 07:01:04;;;;;;;;;;;;;;;17.12;40.25;100262.31;4461010;32;34560;-82
2023/05/01 07:03:31;;;;;;;;;;;;;;;17.94;37.71;100267.78;4454636;32;33767;-81
2023/05/01 07:05:59;;;;;;;;;;;;;;;18.73;34.56;100248.41;4463093;32;34006;-81
2023/05/01 07:08:27;;;;;;;;;;;;;;;19.47;32.94;100254.97;4456030;32;32610;-81
2023/05/01 07:10:54;;;;;;;;;;;;;;;20.13;32.61;100251.59;4464428;32;34411;-81
2023/05/01 07:13:21;;;;;;;;;;;;;;;21.83;30.29;100245.34;4460592;32;34153;-82
2023/05/01 07:15:49;;;;;;;;;;;;;;;22.11;29.11;100252.53;4465823;32;34616;-81
2023/05/01 07:18:20;;;;;;;;;;;;;;;22.40;27.79;100253.59;4445767;32;34165;-81
2023/05/01 07:20:49;;;;;;;;;;;;;;;22.70;27.12;100258.09;4461571;32;34133;-81
2023/05/01 07:23:16;;;;;;;;;;;;;;;23.39;26.38;100244.97;4460081;32;33785;-82
2023/05/01 07:25:44;;;;;;;;;;;;;;;23.38;26.31;100253.78;4462197;32;34111;-82
2023/05/01 07:28:12;;;;;;;;;;;;;;;23.84;25.57;100248.47;4467588;32;33486;-81
2023/05/01 07:30:39;;;;;;;;;;;;;;;24.73;24.68;100247.25;4449654;32;33508;-82
2023/05/01 07:33:06;;;;;;;;;;;;;;;24.62;24.71;100254.37;4454212;32;34127;-81
2023/05/01 07:35:34;;;;;;;;;;;;;;;25.16;24.16;100246.94;4459419;32;33907;-82
2023/05/01 07:38:01;;;;;;;;;;;;;;;25.90;22.39;100241.88;4442569;32;33458;-82
2023/05/01 07:40:28;;;;;;;;;;;;;;;26.17;22.43;100246.87;4466552;32;34056;-82
2023/05/01 07:42:56;;;;;;;;;;;;;;;26.71;21.83;100236.47;4457445;32;34263;-82
2023/05/01 07:45:23;;;;;;;;;;;;;;;27.01;21.61;100250.22;4453347;32;34664;-82
2023/05/01 07:47:51;;;;;;;;;;;;;;;26.62;21.14;100244.59;4466828;32;32896;-82
2023/05/01 07:50:18;;;;;;;;;;;;;;;26.78;20.82;100242.59;4456906;32;34206;-82
2023/05/01 07:52:46;;;;;;;;;;;;;;;27.88;20.37;100245.22;4464733;32;35793;-82
2023/05/01 07:55:14;;;;;;;;;;;;;;;27.77;20.41;100239.16;4462882;32;34761;-81
2023/05/01 07:57:41;;;;;;;;;;;;;;;27.69;20.47;100244.63;4458899;32;34076;-82
2023/05/01 08:00:08;;;;;;;;;;;;;;;27.94;20.00;100245.06;4467231;32;33827;-82
2023/05/01 08:02:39;;;;;;;;;;;;;;;27.64;19.43;100242.06;4451991;32;33956;-82
2023/05/01 08:05:08;;;;;;;;;;;;;;;27.14;20.98;100237.56;4462136;32;34892;-82
2023/05/01 08:07:35;;;;;;;;;;;;;;;26.98;21.74;100237.81;4465205;32;33971;-82
2023/05/01 08:10:02;;;;;;;;;;;;;;;27.36;21.42;100240.81;4449396;32;33947;-82
2023/05/01 08:12:30;;;;;;;;;;;;;;;27.42;21.12;100246.00;4466113;32;33978;-83
2023/05/01 08:14:58;;;;;;;;;;;;;;;27.62;20.58;100238.56;4460814;32;33648;-81
2023/05/01 08:17:25;;;;;;;;;;;;;;;27.36;20.91;100243.47;4460166;32;33193;-82
2023/05/01 08:19:55;;;;;;;;;;;;;;;26.78;21.10;100238.13;4453456;32;34006;-81
2023/05/01 08:22:22;;;;;;;;;;;;;;;27.07;21.33;100239.47;4444715;32;34162;-81
2023/05/01 08:24:50;;;;;;;;;;;;;;;27.16;21.55;100244.66;4462593;32;32687;-81
2023/05/01 08:27:17;;;;;;;;;;;;;;;26.83;21.60;100244.28;4462324;32;33989;-82
2023/05/01 08:29:44;;;;;;;;;;;;;;;26.83;22.31;100238.06;4462007;32;33952;-81
2023/05/01 08:32:13;;;;;;;3.53;1.55;;;;;;;26.00;22.91;100253.28;4456445;32;33895;-81
2023/05/01 08:34:41;;;;;;;3.55;1.37;;;;;;;25.82;23.36;100249.00;4463351;32;33145;-81
2023/05/01 08:37:08;;;;;;;8.43;1.67;;;;;;;26.16;22.64;100242.50;4461372;32;33365;-82
2023/05/01 08:39:36;;;;;;;5.55;1.85;;;;;;;26.54;23.34;100243.75;4460860;32;33416;-81
2023/05/01 08:42:04;;;;;;;;;;;;;;;25.68;22.55;100246.50;4455541;32;33989;-81
2023/05/01 08:44:31;;;;;;;;;;;;;;;25.86;23.11;100234.84;4462029;32;33633;-82
2023/05/01 08:47:12;;;;;;;;;;;;;;;25.78;22.49;100234.03;4461946;32;33989;-82
2023/05/01 08:49:40;;;;;;;;;;;;;;;25.93;22.73;100235.66;4463860;32;34846;-81
2023/05/01 08:52:07;;;;;;;;;;;;;;;25.83;22.66;100239.31;4456033;32;33689;-81
2023/05/01 08:54:35;;;;;;;;;;;;;;;25.29;23.93;100237.16;4446741;32;33563;-82
2023/05/01 08:57:03;;;;;;;;;;;;;;;24.38;25.18;100239.44;4461239;32;33996;-81
2023/05/01 08:59:31;;;;;;;;;;;;;;;24.55;24.65;100242.03;4464379;32;34312;-82
2023/05/01 09:01:59;;;;;;;;;;;;;;;23.80;25.59;100240.53;4460331;32;33854;-81
2023/05/01 09:04:31;;;;;;;;;;;;;;;24.08;25.07;100247.50;4465998;32;33935;-82
2023/05/01 09:07:01;;;;;;;;;;;;;;;24.12;25.06;100243.97;4460641;32;33654;-81
2023/05/01 09:09:28;;;;;;;;;;;;;;;23.40;25.28;100245.88;4459487;32;33093;-81
2023/05/01 09:12:00;;;;;;;;;;;;;;;23.34;26.63;100244.09;4459393;32;34427;-81
2023/05/01 09:14:27;;;;;;;;;;;;;;;23.53;26.91;100242.34;4445099;32;34620;-82
2023/05/01 09:16:55;;;;;;;;;;;;;;;23.75;26.39;100232.59;4462923;32;34083;-82
2023/05/01 09:19:23;;;;;;;;;;;;;;;23.89;27.04;100228.19;4452494;32;34978;-81
2023/05/01 09:21:50;;;;;;;;;;;;;;;23.82;25.51;100233.50;4465223;32;35063;-82
2023/05/01 09:24:18;;;;;;;;;;;;;;;23.59;26.28;100231.75;4456361;32;34259;-82
2023/05/01 09:26:45;;;;;;;;;;;;;;;23.99;26.08;100230.78;4464080;32;33338;-82
2023/05/01 09:29:13;;;;;;;;;;;;;;;24.41;25.53;100229.72;4454535;32;34057;-82
2023/05/01 09:31:41;;;;;;;;;;;;;;;24.38;24.91;100228.84;4463071;32;34545;-82
2023/05/01 09:34:08;;;;;;;;;;;;;;;24.14;26.45;100223.69;4448708;32;34258;-82
2023/05/01 09:36:36;;;;;;;;;;;;;;;23.73;26.28;100232.56;4464940;32;33355;-81
2023/05/01 09:39:03;;;;;;;;;;;;;;;23.81;26.08;100229.06;4449107;32;34722;-82
2023/05/01 09:41:32;;;;;;;;;;;;;;;23.48;26.59;100234.38;4446946;32;33403;-82
2023/05/01 09:44:00;;;;;;;;;;;;;;;23.92;25.37;100229.94;4453937;32;33641;-82
2023/05/01 09:46:28;;;;;;;;;;;;;;;23.63;26.54;100225.56;4464378;32;33285;-81
2023/05/01 09:48:57;;;;;;;;;;;;;;;23.70;26.81;100232.59;4449890;32;34181;-82
2023/05/01 09:51:25;;;;;;;;;;;;;;;24.00;26.36;100233.44;4459330;32;33578;-81
2023/05/01 09:53:54;;;;;;;;;;;;;;;24.05;26.51;100214.88;4465001;32;33946;-81
2023/05/01 09:56:21;;;;;;;;;;;;;;;24.30;25.72;100215.69;4442919;32;33757;-82
2023/05/01 09:58:49;;;;;;;;;;;;;;;24.17;25.70;100212.19;4463501;32;34196;-81
2023/05/01 10:01:16;;;;;;;;;;;;;;;24.28;25.38;100207.75;4459092;32;34335;-82
2023/05/01 10:03:44;;;;;;;;;;;;;;;24.10;25.16;100200.75;4456205;32;34219;-82
2023/05/01 10:06:24;;;;;;;;;;;;;;;24.62;26.14;100201.41;4464835;32;33099;-81
2023/05/01 10:08:53;;;;;;;;;;;;;;;25.21;25.20;100202.72;4462843;32;34057;-82
2023/05/01 10:11:21;;;;;;;;;;;;;;;25.13;25.51;100199.28;4462419;32;34051;-82
2023/05/01 10:14:05;;;;;;;;;;;;;;;24.86;26.27;100193.28;4457029;32;33847;-82
2023/05/01 10:16:33;;;;;;;;;;;;;;;24.73;25.92;100194.28;4444723;32;33132;-82
2023/05/01 10:19:01;;;;;;;;;;;;;;;25.17;25.02;100198.34;4460966;32;34136;-82
2023/05/01 10:21:32;;;;;;;;;;;;;;;25.67;24.14;100185.50;4451570;32;33676;-82
2023/05/01 10:24:00;;;;;;;;;;;;;;;25.12;25.05;100181.59;4445429;32;33959;-82
2023/05/01 10:26:28;;;;;;;;;;;;;;;25.01;25.06;100188.75;4450840;32;33071;-82
2023/05/01 10:28:58;;;;;;;;;;;;;;;25.00;24.86;100182.59;4452218;32;35045;-83
2023/05/01 10:31:26;;;;;;;;;;;;;;;25.45;24.44;100179.56;4456222;32;34685;-83
2023/05/01 10:33:54;;;;;;;;;;;;;;;25.37;24.08;100176.09;4456293;32;34077;-84
2023/05/01 10:36:25;;;;;;;;;;;;;;;25.19;25.01;100172.69;4453839;32;32016;-83
2023/05/01 10:38:52;;;;;;;;;;;;;;;25.57;24.23;100174.09;4449697;32;34052;-82
2023/05/01 10:41:38;;;;;;;;;;;;;;;24.98;24.90;100178.19;4456058;32;33765;-81
2023/05/01 10:44:18;;;;;;;;;;;;;;;25.04;24.94;100175.50;4460769;32;35064;-84
2023/05/01 10:46:45;;;;;;;;;;;;;;;24.87;25.34;100170.31;4453864;32;32335;-81
2023/05/01 10:49:13;;;;;;;;;;;;;;;25.18;24.69;100173.59;4457690;32;34248;-85
2023/05/01 10:51:59;;;;;;;;;;;;;;;25.41;24.34;100169.88;4457619;32;35033;-81
2023/05/01 10:54:27;;;;;;;;;;;;;;;25.56;24.15;100167.06;4463003;32;34931;-83
2023/05/01 10:56:55;;;;;;;;;;;;;;;26.06;23.48;100162.97;4448703;32;33264;-81
2023/05/01 10:59:23;;;;;;;;;;;;;;;25.99;22.89;100171.03;4445118;32;33393;-81
2023/05/01 11:01:51;;;;;;;;;;;;;;;25.06;25.96;100161.31;4453201;32;34153;-81
2023/05/01 11:04:18;;;;;;;;;;;;;;;25.56;23.55;100156.44;4457638;32;34707;-81
2023/05/01 11:07:01;;;;;;;;;;;;;;;25.68;23.20;100145.69;4458180;32;33419;-83
2023/05/01 11:09:57;;;;;;;;;;;;;;;25.60;24.00;100155.50;4457925;32;34171;-81
2023/05/01 11:12:43;;;;;;;;;;;;;;;25.29;25.57;100163.78;4448033;32;33017;-82
2023/05/01 11:15:23;;;;;;;;;;;;;;;24.56;24.53;100148.47;4457311;32;33590;-83
2023/05/01 11:17:51;;;;;;;;;;;;;;;24.96;25.85;100149.06;4456579;32;34036;-82
2023/05/01 11:20:24;;;;;;;;;;;;;;;25.37;24.96;100146.94;4459493;32;34948;-86
2023/05/01 11:22:52;;;;;;;;;;;;;;;24.70;25.10;100151.91;4444440;32;33936;-82
2023/05/01 11:25:20;;;;;;;;;;;;;;;25.70;26.33;100138.59;4456916;32;33786;-83
2023/05/01 11:27:51;;;;;;;;;;;;;;;26.04;25.39;100138.22;4456441;32;33878;-82
2023/05/01 11:30:19;;;;;;;;;;;;;;;25.99;24.91;100140.03;4459997;32;34036;-85
2023/05/01 11:32:48;;;;;;;;;;;;;;;26.06;24.44;100136.41;4457858;32;34070;-82
2023/05/01 11:35:16;;;;;;;;;;;;;;;26.54;24.01;100132.19;4454241;32;34457;-83
2023/05/01 11:37:44;;;;;;;;;;;;;;;26.73;23.54;100130.16;4452623;32;33565;-80
2023/05/01 11:40:18;;;;;;;;;;;;;;;26.06;24.04;100132.88;4448705;32;34706;-83
2023/05/01 11:42:45;;;;;;;;;;;;;;;26.70;24.12;100120.47;4460693;32;33657;-84
2023/05/01 11:45:13;;;;;;;;;;;;;;;26.23;24.49;100125.56;4449609;32;34184;-82
2023/05/01 11:47:40;;;;;;;;;;;;;;;26.28;24.40;100126.34;4448764;32;32608;-83
2023/05/01 11:50:09;;;;;;;;;;;;;;;26.57;24.12;100122.37;4454229;32;34918;-83
2023/05/01 11:52:47;;;;;;;;;;;;;;;26.47;24.68;100116.34;4453660;32;33967;-82
2023/05/01 11:55:15;;;;;;;;;;;;;;;26.87;24.54;100115.72;4458804;32;34136;-81
2023/05/01 11:57:46;;;;;;;;;;;;;;;26.56;26.08;100119.75;4457685;32;33525;-82
2023/05/01 12:00:14;;;;;;;;;;;;;;;26.70;23.58;100111.63;4458555;32;34156;-82
2023/05/01 12:03:14;;;;;;;;;;;;;;;26.79;24.55;100104.38;4450183;32;33361;-82
2023/05/01 12:05:42;;;;;;;;;;;;;;;26.58;24.31;100107.31;4427107;32;34794;-85
2023/05/01 12:08:11;;;;;;;;;;;;;;;27.10;23.90;100103.81;4457340;32;32410;-83
2023/05/01 12:10:40;;;;;;;;;;;;;;;26.49;24.63;100103.91;4444146;32;33981;-82
2023/05/01 12:13:08;;;;;;;;;;;;;;;26.39;24.17;100107.63;4447584;32;33873;-82
2023/05/01 12:15:37;;;;;;;;;;;;;;;26.37;25.07;100097.94;4455875;32;34685;-79
2023/05/01 12:18:05;;;;;;;;;;;;;;;26.08;24.78;100100.09;4463742;32;33306;-83
2023/05/01 12:20:36;;;;;;;;;;;;;;;26.11;25.14;100090.34;4455519;32;33936;-81
2023/05/01 12:23:04;;;;;;;;;;;;;;;26.19;25.66;100091.09;4465596;32;34820;-80
2023/05/01 12:25:35;;;;;;;;;;;;;;;26.36;24.99;100091.72;4451220;32;34231;-80
2023/05/01 12:28:14;;;;;;;;;;;;;;;26.57;25.83;100092.28;4450224;32;33630;-82
2023/05/01 12:30:42;;;;;;;;;;;;;;;26.42;25.17;100096.94;4456931;32;33767;-83
2023/05/01 12:33:11;;;;;;;;;;;;;;;26.55;25.16;100087.00;4450792;32;33719;-79
2023/05/01 12:35:39;;;;;;;;;;;;;;;26.70;24.91;100085.03;4455664;32;34924;-81
2023/05/01 12:38:22;;;;;;;;;;;;;;;26.36;23.86;100075.78;4461210;32;33491;-82
2023/05/01 12:40:53;;;;;;;;;;;;;;;25.41;26.44;100079.72;4451455;32;32779;-81
2023/05/01 12:43:21;;;;;;;;;;;;;;;25.35;26.23;100077.13;4452238;32;33745;-82